Metar Cercanos

 

LEPA - Palma De Mallorc, Spain
Distance from station: ONO 38km
Actualización: Tue, 04-Oct-2022 1:00pm CEST
Few Clouds
Few Clouds
 Viento del NE
Viento: NE 9 km/h
Temperatura: 27°C
Indice Calor: 27°C
Rocío: 15°C
Humedad: 48%
Barómetro: 1020 hPa
Clouds: Few Clouds
Visibility: 10 km
Cloud details: Few Clouds 762 m
2022/10/04 11:00 LEPA 041100Z 05005KT 9999 FEW025 27/15 Q1020 NOSIG
LEMH - Mahon/Menorca Is, Spain
Distance from station: ENE 105km
Actualización: Tue, 04-Oct-2022 1:00pm CEST
Few Clouds
Few Clouds
 Viento del NNE
Viento: NNE 19 km/h
Temperatura: 24°C
Rocío: 16°C
Humedad: 61%
Barómetro: 1020 hPa
Clouds: Few Clouds
Visibility: 10 km
Cloud details: Few Clouds 762 m
2022/10/04 11:00 LEMH 041100Z 02010KT 350V060 9999 FEW025 24/16 Q1020
 
LEIB - Ibiza/Es Codola, Spain
Distance from station: OSO 165km
Actualización: Tue, 04-Oct-2022 1:00pm CEST
Few Clouds
Few Clouds
 Viento del E
Viento: E 6 km/h
Temperatura: 24°C
Rocío: 19°C
Humedad: 74%
Barómetro: 1020 hPa
Clouds: Few Clouds
Visibility: 10 km
Cloud details: Few Clouds 1067 m
Few Clouds 1372 m
2022/10/04 11:00 LEIB 041100Z 09003KT 050V160 9999 FEW035 FEW045TCU 24/19 Q1020 NOSIG
LEBL - Barcelona Airpor, Spain
Distance from station: NNO 225km
Actualización: Tue, 04-Oct-2022 1:00pm CEST
Few Clouds
Few Clouds
 Viento del E
Viento: E 13 km/h
Temperatura: 23°C
Rocío: 16°C
Humedad: 65%
Barómetro: 1021 hPa
Clouds: Few Clouds
Visibility: 10 km
Cloud details: Few Clouds 549 m
2022/10/04 11:00 LEBL 041100Z 10007KT 9999 FEW018 23/16 Q1021 NOSIG
 
LEVC - Valencia (civ/Mi, Spain
Distance from station: NO 188km
Actualización: Tue, 04-Oct-2022 1:00pm CEST
Few Clouds
Few Clouds
 Viento del ESE
Viento: ESE 6 km/h
Temperatura: 25°C
Rocío: 17°C
Humedad: 61%
Barómetro: 1021 hPa
Clouds: Few Clouds
Visibility: 10 km
Cloud details: Few Clouds 853 m
2022/10/04 11:00 LEVC 041100Z 12003KT 080V220 9999 FEW028 25/17 Q1021 NOSIG
LEGE - Gerona/Costa Bra, Spain
Distance from station: N 276km
Actualización: Tue, 04-Oct-2022 1:00pm CEST
Few Clouds
Few Clouds
 Viento del O
Viento: O 2 km/h
Temperatura: 25°C
Rocío: 13°C
Humedad: 47%
Barómetro: 1021 hPa
Clouds: Few Clouds
Visibility: 10 km
Cloud details: Few Clouds 610 m
2022/10/04 11:00 LEGE 041100Z 27001KT 9999 FEW020 25/13 Q1021
 
LEAL - Alicante/El Alte, Spain
Distance from station: OSO 344km
Actualización: Tue, 04-Oct-2022 1:00pm CEST
Parcialmente nuboso
Parcialmente nuboso
 Viento del ONO
Viento: ONO 6 km/h
Temperatura: 24°C
Rocío: 20°C
Humedad: 78%
Barómetro: 1021 hPa
Clouds: Parcialmente nuboso
Visibility: 10 km
Cloud details: Few Clouds 518 m
Parcialmente nuboso 1372 m
2022/10/04 11:00 LEAL 041100Z 30003KT 250V020 9999 FEW017 SCT045 24/20 Q1021 NOSIG
LEAM - Almeria Airport, Spain
Distance from station: SSO 56km
Actualización: Tue, 04-Oct-2022 1:00pm CEST
Patches of fog, Cubierto
Patches of fog, Cubierto
 Viento del S
Viento: S 7 km/h
Temperatura: 21°C
Rocío: 20°C
Humedad: 94%
Barómetro: 1020 hPa
Resumen: Patches of Fog
Clouds: Cubierto
Visibility: 2 km
Cloud details: Cubierto 30 m
2022/10/04 11:00 LEAM 041100Z 17004KT 140V230 2000 1000S BCFG OVC001 21/20 Q1020
 
LEZG - Zaragoza (mil/Ci, Spain
Distance from station: NO 431km
Actualización: Tue, 04-Oct-2022 1:00pm CEST
Despejado
Despejado
 Viento del O
Viento: O 6 km/h
Temperatura: 23°C
Rocío: 11°C
Humedad: 47%
Barómetro: 1022 hPa
Resumen: Despejado
Visibility: greater than 10 km
2022/10/04 11:00 LEZG 041100Z 28003KT CAVOK 23/11 Q1022
LEMD - Madrid/Barajas, Spain
Distance from station: ONO 234km
Actualización: Tue, 04-Oct-2022 1:00pm CEST
Despejado
Despejado
 Viento del O
Viento: O 4 km/h
Temperatura: 25°C
Rocío: 6°C
Humedad: 30%
Barómetro: 1023 hPa
Resumen: Despejado
Visibility: greater than 10 km
2022/10/04 11:00 LEMD 041100Z 28002KT CAVOK 25/06 Q1023 NOSIG
 
LEGR - Granada Airport, Spain
Distance from station: OSO 62km
Actualización: Tue, 04-Oct-2022 1:00pm CEST
Few Clouds
Few Clouds
 Viento del varies
Viento: varies 4 km/h
Temperatura: 26°C
Rocío: 9°C
Humedad: 34%
Barómetro: 1022 hPa
Clouds: Few Clouds
Visibility: 10 km
Cloud details: Few Clouds 2438 m
2022/10/04 11:00 LEGR 041100Z VRB02KT 9999 FEW080 26/09 Q1022
LEMG - Malaga (civ/Mil), Spain
Distance from station: OSO 227km
Actualización: Tue, 04-Oct-2022 1:00pm CEST
Despejado
Despejado
 Viento del SE
Viento: SE 9 km/h
Temperatura: 24°C
Rocío: 16°C
Humedad: 61%
Barómetro: 1020 hPa
Resumen: Despejado
Visibility: greater than 10 km
2022/10/04 11:00 LEMG 041100Z 13005KT 080V190 CAVOK 24/16 Q1020 NOSIG
 
LEZL - Sevilla (civ/Mil, Spain
Distance from station: S 318km
Actualización: Tue, 04-Oct-2022 1:00pm CEST
Despejado
Despejado
 Viento del ENE
Viento: ENE 4 km/h
Temperatura: 28°C
Indice Calor: 28°C
Rocío: 14°C
Humedad: 42%
Barómetro: 1020 hPa
Resumen: Despejado
Visibility: greater than 10 km
2022/10/04 11:00 LEZL 041100Z 06002KT CAVOK 28/14 Q1020 NOSIG
LEVT - Vitoria, Spain
Distance from station: NO 226km
Actualización: Tue, 04-Oct-2022 1:00pm CEST
Despejado
Despejado
 Viento del S
Viento: S 2 km/h
Temperatura: 21°C
Rocío: 12°C
Humedad: 57%
Barómetro: 1023 hPa
Resumen: Despejado
Visibility: greater than 10 km
2022/10/04 11:00 LEVT 041100Z 17001KT CAVOK 21/12 Q1023
 
LEBB - Bilbao/Sondica, Spain
Distance from station: NNO 235km
Actualización: Tue, 04-Oct-2022 1:00pm CEST
Despejado
Despejado
 Viento del varies
Viento: varies 2 km/h
Temperatura: 23°C
Rocío: 16°C
Humedad: 65%
Barómetro: 1022 hPa
Resumen: Despejado
Visibility: greater than 10 km
2022/10/04 11:00 LEBB 041100Z VRB01KT CAVOK 23/16 Q1022 NOSIG
LESO - San Sebastian/Fu, Spain
Distance from station: N 231km
Actualización: Tue, 04-Oct-2022 1:00pm CEST
Shallow fog, Muy nuboso
Shallow fog, Muy nuboso
 Viento del NNE
Viento: NNE 13 km/h
Temperatura: 19°C
Rocío: 17°C
Humedad: 88%
Barómetro: 1022 hPa
Resumen: Shallow Fog
Clouds: Muy nuboso
Visibility: 9 km
Cloud details: Muy nuboso 152 m
2022/10/04 11:00 LESO 041100Z 03007KT 010V070 9000 2000N MIFG BKN005 19/17 Q1022
 
LEVD - Valladolid(Mil/C, Spain
Distance from station: ONO 239km
Actualización: Tue, 04-Oct-2022 1:00pm CEST
Few Clouds
Few Clouds
 Viento del O
Viento: O 6 km/h
Temperatura: 23°C
Rocío: 6°C
Humedad: 33%
Barómetro: 1024 hPa
Clouds: Few Clouds
Visibility: 10 km
Cloud details: Few Clouds 1372 m
2022/10/04 11:00 LEVD 041100Z 27003KT 170V330 9999 FEW045 23/06 Q1024
LESA - Salamanca (civ/M, Spain
Distance from station: ONO 349km
Actualización: Tue, 04-Oct-2022 1:00pm CEST
Despejado
Despejado
 Viento del ONO
Viento: ONO 7 km/h
Temperatura: 24°C
Rocío: 8°C
Humedad: 36%
Barómetro: 1025 hPa
Resumen: Despejado
Visibility: greater than 10 km
2022/10/04 11:00 LESA 041100Z 30004KT 250V360 CAVOK 24/08 Q1025
 
LEXJ - Santander/Paraya, Spain
Distance from station: NNO 247km
Actualización: Tue, 04-Oct-2022 1:00pm CEST
Despejado
Despejado
 Viento del varies
Viento: varies 4 km/h
Temperatura: 20°C
Rocío: 16°C
Humedad: 78%
Barómetro: 1021 hPa
Resumen: Despejado
Visibility: greater than 10 km
2022/10/04 11:00 LEXJ 041100Z VRB02KT CAVOK 20/16 Q1021
LEAS - Asturias/Aviles, Spain
Distance from station: NO 214km
Actualización: Tue, 04-Oct-2022 1:00pm CEST
Muy nuboso
Muy nuboso
 Viento del ONO
Viento: ONO 9 km/h
Temperatura: 18°C
Rocío: 16°C
Humedad: 88%
Barómetro: 1022 hPa
Clouds: Muy nuboso
Visibility: 10 km
Cloud details: Muy nuboso 335 m
2022/10/04 11:00 LEAS 041100Z 29005KT 210V010 9999 BKN011 18/16 Q1022 TEMPO SCT010
 
LECO - La Coruna/Alvedr, Spain
Distance from station: ONO 222km
Actualización: Tue, 04-Oct-2022 1:00pm CEST
Few Clouds
Few Clouds
 Viento del varies
Viento: varies 4 km/h
Temperatura: 20°C
Rocío: 15°C
Humedad: 73%
Barómetro: 1022 hPa
Clouds: Few Clouds
Visibility: 10 km
Cloud details: Few Clouds 610 m
2022/10/04 11:00 LECO 041100Z VRB02KT 9999 FEW020 20/15 Q1022 NOSIG
LEVX - Vigo/Peinador, Spain
Distance from station: O 214km
Actualización: Tue, 04-Oct-2022 1:00pm CEST
Despejado
Despejado
 Viento del OSO
Viento: OSO 9 km/h
Temperatura: 19°C
Rocío: 13°C
Humedad: 68%
Barómetro: 1023 hPa
Resumen: Despejado
Visibility: greater than 10 km
2022/10/04 11:00 LEVX 041100Z 24005KT 190V270 CAVOK 19/13 Q1023 NOSIG